»·PEaware :: N71649 KBUR-KSBA

N71649 :: KBUR-KSBA

FLIGHT INFORMATION

Flight Status: Arrived
Operator: Privately registered:
United States
More flights under this callsign
Pilot: Ke L. (11649)
Aircraft: CESSNA 182 SKYLANE
(C182)
More flights by this aircraft type
Origin: KBUR Bob Hope-Burbank
United States
Destination: KSBA Santa Barbara Mun
United States
More flights between these airports :: More routes between these airports
Route: VNY3 FIM V186 DEANO V27 KWANG
File this flight plan on PilotEdge
Remarks: TEC route BURP39
Altitude:
(Current/Filed)
6,000ft
Speed:
(Current/Filed)
140kts
Departed: 04-Jan-21 08:11 PM
Arrived: 04-Jan-21 09:18 PM
Distance/Time
Traveled:
75nm/1:07
Distance/Time
To Go:
Arrived

Flight Plot

Page will automatically refresh every two minutes.


Map Options




Map Legend


Flown Route
Filed Route
Departure Airport
Arrival Airport
Navaid (VOR, NDB)
Fix

Horizontal Profiles

Position Reports

Time Latitude Longitude Heading Altitude Ground
Speed
04-Jan-21 19:55 34.196707 -118.352868 179 699ft 0kts
04-Jan-21 19:56 34.196707 -118.352868 179 699ft 0kts
04-Jan-21 19:58 34.200258 -118.362796 220 727ft 0kts
04-Jan-21 19:59 34.200258 -118.362796 220 727ft 0kts
04-Jan-21 20:00 34.200258 -118.362796 220 727ft 0kts
04-Jan-21 20:01 34.200258 -118.362796 220 727ft 0kts
04-Jan-21 20:02 34.200258 -118.362796 220 727ft 0kts
04-Jan-21 20:03 34.200258 -118.362796 220 727ft 0kts
04-Jan-21 20:04 34.200258 -118.362796 220 727ft 0kts
04-Jan-21 20:05 34.200258 -118.362796 220 727ft 0kts
04-Jan-21 20:06 34.200116 -118.363786 270 726ft 9kts
04-Jan-21 20:07 34.199124 -118.367026 270 727ft 13kts
04-Jan-21 20:08 34.198720 -118.368991 184 727ft 0kts
04-Jan-21 20:09 34.198591 -118.369008 186 727ft 4kts
04-Jan-21 20:10 34.194999 -118.354918 135 1082ft 102kts
04-Jan-21 20:11 34.167173 -118.370434 222 1781ft 128kts
04-Jan-21 20:12 34.141546 -118.400013 222 2580ft 124kts
04-Jan-21 20:13 34.140451 -118.434872 303 3373ft 117kts
04-Jan-21 20:14 34.157739 -118.467781 307 4184ft 115kts
04-Jan-21 20:15 34.174461 -118.500818 307 4996ft 118kts
04-Jan-21 20:16 34.191480 -118.535361 307 5811ft 120kts
04-Jan-21 20:17 34.209990 -118.573290 306 6017ft 141kts
04-Jan-21 20:18 34.229972 -118.615118 306 6016ft 145kts
04-Jan-21 20:19 34.250081 -118.657290 304 6019ft 143kts
04-Jan-21 20:20 34.269710 -118.698758 303 6023ft 140kts
04-Jan-21 20:21 34.288911 -118.739080 303 6027ft 137kts
04-Jan-21 20:22 34.307921 -118.778991 302 6029ft 136kts
04-Jan-21 20:23 34.326664 -118.818387 302 6029ft 134kts
04-Jan-21 20:24 34.345249 -118.857488 302 6029ft 134kts
04-Jan-21 20:25 34.359736 -118.898319 261 6016ft 142kts
04-Jan-21 20:26 34.354015 -118.945046 270 6010ft 139kts
04-Jan-21 20:27 34.350954 -118.991960 270 6010ft 139kts
04-Jan-21 20:28 34.348190 -119.038689 271 6010ft 139kts
04-Jan-21 20:29 34.345523 -119.085433 271 6010ft 139kts
04-Jan-21 20:30 34.342864 -119.132503 271 6010ft 141kts
04-Jan-21 20:31 34.340193 -119.180103 272 6010ft 142kts
04-Jan-21 20:32 34.335057 -119.228147 268 6010ft 145kts
04-Jan-21 20:33 34.329946 -119.278200 269 5717ft 155kts
04-Jan-21 20:34 34.325728 -119.328346 270 5215ft 144kts
04-Jan-21 20:35 34.322191 -119.373991 271 4659ft 126kts
04-Jan-21 20:36 34.319221 -119.413574 271 3982ft 106kts
04-Jan-21 20:37 34.316873 -119.445259 271 3261ft 88kts
04-Jan-21 20:38 34.314736 -119.474238 271 2993ft 89kts
04-Jan-21 20:39 34.312489 -119.504441 270 2996ft 85kts
04-Jan-21 20:40 34.316351 -119.530971 292 2663ft 81kts
04-Jan-21 20:41 34.325413 -119.555673 297 2157ft 79kts
04-Jan-21 20:42 34.335242 -119.580034 295 1997ft 78kts
04-Jan-21 20:43 34.344619 -119.603723 293 1998ft 78kts
04-Jan-21 20:44 34.353987 -119.627648 292 1999ft 79kts
04-Jan-21 20:45 34.363572 -119.652446 291 2000ft 82kts
04-Jan-21 20:46 34.373308 -119.678062 290 2000ft 84kts
04-Jan-21 20:47 34.383053 -119.703581 290 2000ft 82kts
04-Jan-21 20:48 34.392952 -119.729434 290 1684ft 85kts
04-Jan-21 20:49 34.402657 -119.754703 290 1179ft 81kts
04-Jan-21 20:50 34.412202 -119.779612 290 999ft 80kts
04-Jan-21 20:51 34.421363 -119.803526 290 1001ft 77kts
04-Jan-21 20:53 34.428886 -119.829622 248 1124ft 97kts
04-Jan-21 20:54 34.403525 -119.854739 218 1912ft 127kts
04-Jan-21 20:55 34.377605 -119.877846 218 2694ft 103kts
04-Jan-21 20:56 34.355491 -119.895813 210 3605ft 89kts
04-Jan-21 20:57 34.329565 -119.882373 155 4013ft 120kts
04-Jan-21 20:58 34.303421 -119.861638 152 4003ft 96kts
04-Jan-21 20:59 34.281487 -119.843257 170 4011ft 99kts
04-Jan-21 21:00 34.273880 -119.861951 281 4008ft 75kts
04-Jan-21 21:01 34.279470 -119.885722 281 4009ft 72kts
04-Jan-21 21:02 34.288923 -119.909659 291 3698ft 81kts
04-Jan-21 21:03 34.299247 -119.934248 291 3197ft 82kts
04-Jan-21 21:04 34.308992 -119.957218 291 2998ft 70kts
04-Jan-21 21:05 34.319157 -119.981458 291 3006ft 98kts
04-Jan-21 21:06 34.332043 -120.013850 291 3005ft 117kts
04-Jan-21 21:07 34.346557 -120.051352 291 3008ft 123kts
04-Jan-21 21:07 34.358428 -120.082184 291 3014ft 119kts
04-Jan-21 21:09 34.396990 -120.092292 352 3020ft 126kts
04-Jan-21 21:10 34.417763 -120.071535 64 3007ft 84kts
04-Jan-21 21:10 34.421997 -120.048292 76 3020ft 88kts
04-Jan-21 21:12 34.424000 -120.012578 82 2570ft 90kts
04-Jan-21 21:12 34.424662 -119.987615 83 2189ft 87kts
04-Jan-21 21:13 34.425325 -119.958245 83 1723ft 86kts
04-Jan-21 21:14 34.425945 -119.929336 84 1256ft 84kts
04-Jan-21 21:15 34.426537 -119.901253 84 803ft 82kts
04-Jan-21 21:16 34.427114 -119.873641 85 363ft 81kts
04-Jan-21 21:17 34.427655 -119.849550 89 14ft 31kts
04-Jan-21 21:18 34.428552 -119.846139 42 14ft 8kts

Navigation Log

Ident Type
Flight plan parsing failed, navigation log unavailable